Redlands, CA

3:02 PM PDT on August 21, 2014 (GMT -0700)
Riverside Municipal | Change Station
CLOSE
Current Station
Airport
Location: Riverside,
Elevation: 817 ft
Nearby Weather Stations
Active Advisory: Flash Flood Warning, Areal Flood Advisory Active Notice: Record Report

Elev 817 ft 33.95 °N, 117.45 °W | Updated 9 minutes ago

Clear
Clear
91 °F
Feels Like 90 °F
N
7
Wind Variable Wind from Variable

Today
High -- | Low -- °F
--% Chance of Precip.
Yesterday
High -- | Low -- °F
Precip. -- in
6:14 AM 7:28 PM
Waning Crescent, 12% visible
Pressure 29.84 in
Visibility 10.0 miles
Clouds Clear
Heat Index 90 °F
Dew Point 59 °F
Humidity 34%
Rainfall 0.00 in
Snow Depth Not available.
UV 9 out of 12
Pollen 5.40 out of 12
Ozone Good
Flu Activity Not available.
METAR KRAL 212153Z VRB06KT 10SM CLR 33/15 A2989 RMK AO2 SLP103 T03280150

More Conditions Fewer Conditions

Pressure 29.84 in
Visibility 10.0 miles
Clouds Clear
Heat Index 90 °F
Dew Point 59 °F
Humidity 34%
Rainfall 0.00 in
Snow Depth Not available.
UV 9 out of 12
Pollen 5.40 out of 12
Ozone Good
Flu Activity Not available.
METAR KRAL 212153Z VRB06KT 10SM CLR 33/15 A2989 RMK AO2 SLP103 T03280150

More Conditions Fewer Conditions

10-Day Weather Forecast

Almanac

Astronomy

Aug. 21, 2014 Rise Set
Actual Time 6:14 AM PDT 7:28 PM PDT
Civil Twilight 5:48 AM PDT 7:54 PM PDT
Nautical Twilight 5:17 AM PDT 8:25 PM PDT
Astronomical Twilight 4:45 AM PDT 8:57 PM PDT
Moon 2:53 AM PDT 4:56 PM PDT
Length of Visible Light 14h 05m
Length of Day
13h 13m
Tomorrow will be 1m 56s shorter.
Waning Crescent, 12% of the Moon is Illuminated
Today
Waning Crescent
Aug 25
New
Sep 2
First Quarter
Sep 8
Full
Sep 15
Last Quarter

Today's Extremes

State Highs State Lows

Community

WunderPhotos

Upload Photos

1,746,033 photos uploaded!

WunderBlogs® & News

Nearby

Air Quality

  Air Quality AQ Index Pollutant
Yesterday Good
OZONE
Current Good
OZONE
Friday Good
PM10
Friday Moderate
OZONE
Friday Good
CO
Friday Good
NO2

Snow Depth

Station Depth Elevation
Leavitt Meadows 1 in 7200 ft
CSS Lab 1 in 6900 ft
Adin Mountain 0 in 6200 ft
Cedar Pass 1 in 7100 ft

Earthquake Activity

City Distance Mag. Time & Date
Malibu Beach, California 89 miles 3.4 10:03 AM PDT
2014-08-15
Yucca Valley, California 45 miles 3.8 8:57 PM PDT
2014-08-14
Minimum magnitude displayed is 2.5.

Coastal Water Temperatures

Place Temperature
No Stations Reporting

Nearby Weather Stations